ADDS METAR Data INFO
IDs: Format: Raw Decoded Include TAF

Data at: 1958 UTC 15 Dec 2017

KISO 151956Z 27008KT 10SM CLR 13/02 A2990 RMK AO2
KISO 151856Z 24011G16KT 10SM CLR 14/02 A2990 RMK AO2
KISO 151756Z 24005KT 10SM CLR 14/03 A2990 RMK AO2
KISO 151656Z 22007KT 10SM CLR 12/04 A2994 RMK A02
KISO 151556Z 21005KT 10SM CLR 10/04 A2997 RMK AO2
KISO 151456Z 16004KT 10SM CLR 07/03 A3000 RMK A02
KISO 151356Z 07003KT 10SM CLR 04/01 A2999 RMK A02
KISO 151256Z 34003KT 10SM CLR 01/00 A2999 RMK AO2
KISO 151156Z COR 00000KT 10SM CLR 02/00 A2999 RMK A02
KISO 150256Z 05008KT 10SM CLR 01/M02 A3002 RMK AO2
KISO 150156Z 00000KT 10SM CLR 00/M02 A3000 RMK AO2
KISO 150056Z 00000KT 10SM CLR 01/M01 A3000 RMK AO2
KISO 142356Z 00000KT 10SM CLR 03/00 A2997 RMK AO2
KISO 142256Z 00000KT 10SM CLR 04/00 A2995 RMK AO2
KISO 142156Z 00000KT 10SM CLR 09/00 A2992 RMK AO2
KISO 142056Z 29003KT 10SM CLR 14/M03 A2988 RMK AO2
KISO 141956Z 27005KT 10SM CLR 14/M03 A2986 RMK AO2
KISO 141856Z 3108KT 10SM CLR 14/M03 A2986 RMK AO2
KISO 141756Z 27006KT 10SM CLR 14/M03 A2986 RMK AO2
KISO 141656Z 28005KT 10SM CLR 13/M03 A2987 RMK AO2
KISO 141556Z 28006KT 10SM CLR 11/M03 A2987 RMK AO2
KISO 141456Z 24007KT 10SM CLR 08/M04 A2986 RMK AO2
KISO 141356Z 23011KT 10SM CLR 06/M04 A2983 RMK AO2
KISO 141256Z 23008KT 10SM CLR 04/M05 A2981 RMK AO2
KISO 141156Z 23009KT 10SM CLR 04/M05 A2980 RMK AO2